Time;durP1;ratioP1;P1;durP2;ratioP2;P2;SDS_P1;SDS_P2;PMS_P1;PMS_P2;Temp;Humidity;BMP_temperature;BMP_pressure;BME280_temperature;BME280_humidity;BME280_pressure;Samples;Min_cycle;Max_cycle;Signal;HPM_P1;HPM_P2
2021/12/27 00:00:22;;;;;;;19.77;12.87;;;;;;;6.97;100.00;94051.81;4989181;28;20659;-58
2021/12/27 00:02:56;;;;;;;24.00;13.23;;;;;;;7.30;100.00;94081.94;4989608;28;20209;-62
2021/12/27 00:05:22;;;;;;;22.43;13.47;;;;;;;6.96;100.00;94067.88;4993403;28;20182;-61
2021/12/27 00:07:50;;;;;;;22.40;13.57;;;;;;;6.92;100.00;94056.41;4992991;28;20182;-61
2021/12/27 00:10:17;;;;;;;28.20;14.50;;;;;;;7.18;100.00;94086.25;4992644;28;20210;-60
2021/12/27 00:12:43;;;;;;;22.73;13.03;;;;;;;6.87;100.00;94050.94;4992827;28;20619;-62
2021/12/27 00:15:09;;;;;;;24.23;13.80;;;;;;;7.00;100.00;94069.25;4993081;28;20306;-59
2021/12/27 00:17:34;;;;;;;21.73;12.90;;;;;;;7.01;100.00;94083.50;4992824;28;20289;-61
2021/12/27 00:20:00;;;;;;;21.10;13.43;;;;;;;7.09;100.00;94059.19;4992580;28;20189;-61
2021/12/27 00:22:25;;;;;;;20.47;13.27;;;;;;;7.17;100.00;94069.47;4992464;28;20195;-60
2021/12/27 00:24:51;;;;;;;22.50;13.33;;;;;;;7.01;100.00;94070.84;4992578;28;20248;-60
2021/12/27 00:27:17;;;;;;;20.93;12.77;;;;;;;6.90;100.00;94048.97;4992478;28;20199;-61
2021/12/27 00:29:44;;;;;;;22.60;12.47;;;;;;;6.64;100.00;94045.19;4997746;23;20800;-61
2021/12/27 00:32:09;;;;;;;22.53;13.13;;;;;;;6.97;100.00;94059.41;4992588;28;20207;-59
2021/12/27 00:34:38;;;;;;;20.63;12.97;;;;;;;7.01;100.00;94076.69;4992247;28;20211;-61
2021/12/27 00:37:04;;;;;;;20.97;11.90;;;;;;;6.62;100.00;94052.91;4992606;28;20238;-61
2021/12/27 00:39:30;;;;;;;20.30;13.33;;;;;;;6.88;100.00;94047.50;4992591;28;20190;-60
2021/12/27 00:41:56;;;;;;;19.83;12.07;;;;;;;7.04;100.00;94060.50;4992326;28;20211;-62
2021/12/27 00:44:22;;;;;;;23.93;12.70;;;;;;;6.70;100.00;94053.09;4992308;28;20198;-60
2021/12/27 00:46:47;;;;;;;20.27;11.43;;;;;;;6.88;100.00;94035.66;4992139;28;20229;-62
2021/12/27 00:49:13;;;;;;;17.97;11.77;;;;;;;7.01;100.00;94070.84;4992113;28;20179;-61
2021/12/27 00:51:38;;;;;;;17.10;10.20;;;;;;;6.85;100.00;94063.69;4992156;28;20215;-61
2021/12/27 00:54:04;;;;;;;17.00;10.53;;;;;;;6.59;100.00;94053.13;4992103;28;20241;-61
2021/12/27 00:56:29;;;;;;;21.03;11.80;;;;;;;6.93;100.00;94063.09;4991899;28;20226;-61
2021/12/27 00:58:55;;;;;;;22.50;11.77;;;;;;;7.25;100.00;94084.03;4991685;28;20190;-61
2021/12/27 01:01:20;;;;;;;22.77;11.97;;;;;;;7.15;100.00;94068.03;4992468;28;20203;-62
2021/12/27 01:03:46;;;;;;;21.13;11.63;;;;;;;7.00;100.00;94069.25;4992240;28;20191;-60
2021/12/27 01:06:11;;;;;;;20.97;12.37;;;;;;;6.71;100.00;94064.78;4992394;28;20202;-59
2021/12/27 01:08:37;;;;;;;19.93;12.70;;;;;;;6.58;100.00;94078.50;4991808;28;20195;-60
2021/12/27 01:13:59;;;;;;;19.70;12.37;;;;;;;6.23;100.00;94058.53;5094706;28;20182;-62
2021/12/27 01:16:25;;;;;;;19.67;12.63;;;;;;;6.55;100.00;94058.53;5094711;28;20208;-61
2021/12/27 01:18:51;;;;;;;25.00;13.20;;;;;;;6.76;100.00;94077.06;5094359;28;20258;-61
2021/12/27 01:21:19;;;;;;;26.73;12.70;;;;;;;6.65;100.00;94057.69;5094518;28;20211;-59
2021/12/27 01:23:46;;;;;;;22.53;12.60;;;;;;;6.87;100.00;94081.25;5094456;28;20258;-59
2021/12/27 01:26:12;;;;;;;22.60;12.20;;;;;;;6.87;100.00;94071.16;5094311;28;20251;-60
2021/12/27 01:28:38;;;;;;;20.77;12.47;;;;;;;6.92;100.00;94048.84;5094255;28;20200;-59
2021/12/27 01:31:04;;;;;;;20.87;12.10;;;;;;;6.74;100.00;94059.50;5094176;28;20231;-60
2021/12/27 01:33:31;;;;;;;20.40;12.90;;;;;;;6.94;100.00;94035.19;5094245;28;20528;-59
2021/12/27 01:35:58;;;;;;;19.80;11.53;;;;;;;6.83;100.00;94035.22;5094010;28;20227;-61
2021/12/27 01:38:23;;;;;;;22.53;12.10;;;;;;;6.79;100.00;94031.34;5094195;28;20309;-59
2021/12/27 01:40:54;;;;;;;19.90;11.70;;;;;;;6.39;100.00;94023.59;5094268;28;20593;-61
2021/12/27 01:43:26;;;;;;;19.17;11.60;;;;;;;6.62;100.00;94016.75;5094073;28;20182;-61
2021/12/27 01:46:03;;;;;;;17.07;10.27;;;;;;;6.95;100.00;94056.97;5094093;28;20203;-59
2021/12/27 01:48:33;;;;;;;15.87;10.93;;;;;;;6.76;100.00;94051.81;5093808;28;20334;-61
2021/12/27 01:51:01;;;;;;;19.03;10.90;;;;;;;6.75;100.00;94071.19;5093850;28;20278;-61
2021/12/27 01:53:30;;;;;;;18.40;10.97;;;;;;;6.47;100.00;94043.19;5094005;28;20230;-60
2021/12/27 01:55:57;;;;;;;21.93;12.80;;;;;;;6.54;100.00;94036.75;5093821;28;20243;-60
2021/12/27 01:58:23;;;;;;;22.13;11.90;;;;;;;6.98;100.00;94033.19;5093701;28;20249;-59
2021/12/27 02:00:55;;;;;;;19.17;11.63;;;;;;;6.95;100.00;94023.34;5093585;28;20291;-62
2021/12/27 02:03:23;;;;;;;16.70;10.77;;;;;;;6.95;100.00;94051.13;5093730;28;20168;-60
2021/12/27 02:05:49;;;;;;;15.83;10.53;;;;;;;6.88;100.00;94043.25;5093696;28;20239;-61
2021/12/27 02:08:15;;;;;;;17.40;11.50;;;;;;;6.57;100.00;94034.78;5093467;28;20191;-62
2021/12/27 02:10:41;;;;;;;19.90;11.60;;;;;;;6.71;100.00;94037.00;5093459;28;20295;-58
2021/12/27 02:13:07;;;;;;;20.17;11.83;;;;;;;6.84;100.00;94034.31;5093536;28;20551;-58
2021/12/27 02:15:33;;;;;;;16.90;9.87;;;;;;;7.11;100.00;94028.75;5093281;28;20710;-61
2021/12/27 02:17:59;;;;;;;17.80;10.73;;;;;;;7.22;100.00;94013.50;5093334;28;20264;-59
2021/12/27 02:20:31;;;;;;;18.17;10.63;;;;;;;7.45;100.00;94035.19;5093316;28;20259;-61
2021/12/27 02:23:02;;;;;;;16.50;10.23;;;;;;;7.42;100.00;94035.44;5093113;28;20259;-59
2021/12/27 02:25:30;;;;;;;15.37;9.80;;;;;;;7.26;100.00;94045.19;5093215;28;20256;-59
2021/12/27 02:28:01;;;;;;;16.53;10.00;;;;;;;7.11;100.00;93995.91;5092709;28;20207;-60
2021/12/27 02:30:26;;;;;;;16.03;9.37;;;;;;;7.28;100.00;94040.81;5093503;28;20249;-63
2021/12/27 02:32:55;;;;;;;15.43;9.53;;;;;;;7.24;100.00;94032.69;5075128;28;20196;-62
2021/12/27 02:35:24;;;;;;;17.20;9.70;;;;;;;7.04;100.00;94004.91;5092954;28;20214;-62
2021/12/27 02:37:51;;;;;;;16.90;10.17;;;;;;;7.36;100.00;94011.47;5091718;28;20234;-62
2021/12/27 02:40:18;;;;;;;15.27;9.57;;;;;;;7.58;100.00;94020.59;5093146;28;20267;-61
2021/12/27 02:42:58;;;;;;;17.33;9.20;;;;;;;7.56;100.00;94008.06;5092792;28;20187;-61
2021/12/27 02:45:25;;;;;;;14.57;8.63;;;;;;;7.72;100.00;94016.91;5092628;28;20732;-60
2021/12/27 02:47:51;;;;;;;17.87;9.87;;;;;;;7.83;100.00;94025.22;5092617;28;20179;-62
2021/12/27 02:50:17;;;;;;;13.40;9.27;;;;;;;7.82;100.00;94020.28;5092437;28;20256;-60
2021/12/27 02:52:42;;;;;;;12.70;7.93;;;;;;;7.75;100.00;93994.69;5091307;28;20715;-60
2021/12/27 02:55:12;;;;;;;14.93;9.03;;;;;;;7.53;100.00;93977.19;5092541;28;20569;-59
2021/12/27 02:57:38;;;;;;;17.07;8.87;;;;;;;7.68;100.00;93996.13;5091207;28;20185;-60
2021/12/27 03:00:04;;;;;;;12.20;8.93;;;;;;;7.65;100.00;93986.28;5092566;28;20176;-61
2021/12/27 03:02:30;;;;;;;13.60;8.23;;;;;;;7.72;100.00;94014.38;5092942;28;20239;-59
2021/12/27 03:04:55;;;;;;;10.37;7.70;;;;;;;7.33;100.00;93996.53;5092440;28;20207;-60
2021/12/27 03:07:21;;;;;;;16.07;7.60;;;;;;;7.56;100.00;94014.84;5092765;28;20231;-60
2021/12/27 03:09:46;;;;;;;16.60;10.20;;;;;;;7.29;100.00;94004.50;5090999;28;20203;-61
2021/12/27 03:12:12;;;;;;;16.93;9.83;;;;;;;7.51;100.00;94015.22;5091052;28;20220;-61
2021/12/27 03:14:37;;;;;;;21.23;11.17;;;;;;;7.67;100.00;94004.66;5092502;28;20436;-59
2021/12/27 03:17:04;;;;;;;15.43;9.67;;;;;;;7.74;100.00;94015.06;5092314;28;20215;-61
2021/12/27 03:19:29;;;;;;;16.37;9.83;;;;;;;7.59;100.00;94002.75;5092104;28;20187;-61
2021/12/27 03:21:55;;;;;;;17.83;10.13;;;;;;;7.25;100.00;93977.88;5092360;28;20549;-60
2021/12/27 03:24:22;;;;;;;17.00;10.63;;;;;;;7.62;100.00;94009.28;5092030;28;20215;-61
2021/12/27 03:26:48;;;;;;;19.87;10.23;;;;;;;7.58;100.00;94018.06;5091898;28;20745;-60
2021/12/27 03:29:13;;;;;;;16.50;9.73;;;;;;;7.56;100.00;93997.16;5091870;28;20259;-60
2021/12/27 03:31:39;;;;;;;17.07;9.77;;;;;;;7.43;100.00;93981.41;5090744;28;20227;-59
2021/12/27 03:34:05;;;;;;;15.63;9.83;;;;;;;7.69;100.00;94007.84;5092187;28;20239;-60
2021/12/27 03:36:37;;;;;;;14.80;10.03;;;;;;;7.59;100.00;93986.78;5090667;28;20345;-60
2021/12/27 03:39:07;;;;;;;21.37;9.80;;;;;;;7.66;100.00;93990.41;5089644;28;20257;-61
2021/12/27 03:41:33;;;;;;;14.87;9.97;;;;;;;7.80;100.00;93997.63;5091992;28;20216;-62
2021/12/27 03:43:58;;;;;;;16.27;10.53;;;;;;;7.82;100.00;93989.94;5091841;28;20195;-62
2021/12/27 03:46:24;;;;;;;13.93;9.13;;;;;;;7.74;100.00;93980.44;5090675;28;20540;-59
2021/12/27 03:48:49;;;;;;;14.83;9.50;;;;;;;7.81;100.00;93985.78;5091759;28;20259;-61
2021/12/27 03:51:15;;;;;;;16.23;9.83;;;;;;;7.87;100.00;93981.00;5091873;28;20696;-61
2021/12/27 03:53:40;;;;;;;15.43;10.23;;;;;;;8.14;100.00;93998.88;5090355;28;20180;-63
2021/12/27 03:56:08;;;;;;;14.27;10.03;;;;;;;8.14;100.00;93996.34;5090022;28;20228;-62
2021/12/27 03:58:46;;;;;;;15.83;9.53;;;;;;;8.02;100.00;93974.63;5091474;28;20661;-62
2021/12/27 04:01:15;;;;;;;18.93;11.00;;;;;;;7.86;100.00;93959.16;5091600;28;20227;-59
2021/12/27 04:03:43;;;;;;;19.60;10.70;;;;;;;7.64;100.00;93954.31;5091743;28;20262;-60
2021/12/27 04:06:08;;;;;;;15.03;9.10;;;;;;;7.27;100.00;93940.66;5091536;28;20212;-61
2021/12/27 04:08:34;;;;;;;13.47;9.10;;;;;;;7.18;100.00;93954.03;5091475;28;20267;-62
2021/12/27 04:10:59;;;;;;;13.97;8.90;;;;;;;7.47;100.00;93965.06;5091338;28;20224;-59
2021/12/27 04:13:25;;;;;;;10.60;7.87;;;;;;;7.89;100.00;93981.69;5091454;28;20255;-61
2021/12/27 04:15:51;;;;;;;15.23;8.67;;;;;;;8.00;100.00;93994.19;5091516;28;20212;-62
2021/12/27 04:18:17;;;;;;;12.73;8.73;;;;;;;7.35;100.00;93963.56;5091383;28;20180;-60
2021/12/27 04:20:43;;;;;;;16.57;10.50;;;;;;;7.22;100.00;93960.44;5091223;28;20236;-60
2021/12/27 04:23:08;;;;;;;13.20;9.03;;;;;;;7.29;100.00;93981.75;5091566;28;20185;-60
2021/12/27 04:25:34;;;;;;;12.93;9.77;;;;;;;7.13;100.00;93979.69;5089989;28;20215;-59
2021/12/27 04:28:00;;;;;;;16.97;9.67;;;;;;;6.98;100.00;93975.91;5091158;28;20309;-60
2021/12/27 04:30:26;;;;;;;15.63;9.70;;;;;;;7.20;100.00;93985.84;5091226;28;20180;-62
2021/12/27 04:32:52;;;;;;;15.27;10.17;;;;;;;7.37;100.00;93985.22;5091416;28;20243;-61
2021/12/27 04:35:19;;;;;;;17.03;10.87;;;;;;;7.32;100.00;93968.84;5091030;28;20200;-61
2021/12/27 04:37:45;;;;;;;17.50;9.73;;;;;;;7.18;100.00;93966.66;5091182;28;20262;-64
2021/12/27 04:40:12;;;;;;;16.67;9.97;;;;;;;7.09;100.00;93977.56;5091267;28;20198;-59
2021/12/27 04:42:41;;;;;;;16.70;9.17;;;;;;;7.40;100.00;93985.00;5091351;28;20184;-61
2021/12/27 04:45:07;;;;;;;16.87;10.03;;;;;;;7.68;100.00;94002.91;5091173;28;20703;-62
2021/12/27 04:47:33;;;;;;;15.97;10.17;;;;;;;7.69;100.00;93990.16;5091611;28;20688;-59
2021/12/27 04:49:59;;;;;;;16.53;10.20;;;;;;;7.70;100.00;93999.31;5092493;28;20176;-59
2021/12/27 04:52:24;;;;;;;15.77;10.30;;;;;;;7.68;100.00;93995.31;5093742;28;20215;-61
2021/12/27 04:54:50;;;;;;;14.33;9.33;;;;;;;7.47;100.00;93980.22;5094907;28;20259;-62
2021/12/27 04:57:16;;;;;;;16.20;10.07;;;;;;;7.75;100.00;93993.88;5095213;28;20222;-62
2021/12/27 04:59:42;;;;;;;14.00;9.70;;;;;;;7.96;100.00;94010.56;5093688;28;20633;-61
2021/12/27 05:02:07;;;;;;;16.57;9.03;;;;;;;7.97;100.00;94004.59;5095027;28;20204;-60
2021/12/27 05:04:33;;;;;;;13.23;8.77;;;;;;;7.96;100.00;94012.31;5094766;28;20203;-61
2021/12/27 05:06:58;;;;;;;11.90;7.87;;;;;;;7.90;100.00;94011.09;5095011;28;20200;-61
2021/12/27 05:09:24;;;;;;;12.83;7.90;;;;;;;7.87;100.00;94015.63;5094655;28;20173;-61
2021/12/27 05:11:50;;;;;;;11.07;7.63;;;;;;;7.78;100.00;93993.66;5094747;28;20680;-59
2021/12/27 05:14:16;;;;;;;12.57;8.90;;;;;;;7.99;100.00;94017.91;5094376;28;20204;-61
2021/12/27 05:16:41;;;;;;;11.70;8.27;;;;;;;7.97;100.00;93986.06;5094795;28;20717;-60
2021/12/27 05:19:07;;;;;;;11.43;7.97;;;;;;;8.11;100.00;93996.63;5093049;28;20172;-62
2021/12/27 05:21:32;;;;;;;11.37;6.80;;;;;;;8.09;100.00;93975.72;5094630;28;20547;-61
2021/12/27 05:23:58;;;;;;;13.33;6.93;;;;;;;8.04;100.00;93980.34;5094399;28;20169;-60
2021/12/27 05:26:24;;;;;;;10.20;7.00;;;;;;;8.09;100.00;94006.09;5094525;28;20249;-63
2021/12/27 05:28:49;;;;;;;8.03;6.07;;;;;;;8.18;100.00;93985.03;5094349;28;20646;-61
2021/12/27 05:31:15;;;;;;;9.53;6.10;;;;;;;8.12;100.00;93990.63;5093091;28;20214;-60
2021/12/27 05:33:40;;;;;;;8.87;5.80;;;;;;;8.11;100.00;93993.28;5094603;28;20180;-61
2021/12/27 05:36:06;;;;;;;8.30;5.40;;;;;;;8.09;100.00;94010.34;5075760;28;20216;-63
2021/12/27 05:38:32;;;;;;;10.33;5.17;;;;;;;7.71;100.00;93965.53;5093980;28;20612;-61
2021/12/27 05:40:57;;;;;;;9.37;6.00;;;;;;;7.87;100.00;93993.66;5094203;28;20204;-65
2021/12/27 05:43:24;;;;;;;7.63;5.57;;;;;;;8.08;100.00;94001.16;5092816;28;20188;-59
2021/12/27 05:45:50;;;;;;;8.13;5.57;;;;;;;8.28;100.00;94005.34;5094093;28;20232;-60
2021/12/27 05:48:16;;;;;;;7.73;4.70;;;;;;;8.21;100.00;94010.09;5094214;28;20180;-59
2021/12/27 05:50:43;;;;;;;8.53;5.13;;;;;;;8.32;100.00;94024.41;5093801;28;20619;-62
2021/12/27 05:53:09;;;;;;;9.00;6.27;;;;;;;8.25;100.00;94006.41;5093681;28;20188;-59
2021/12/27 05:55:34;;;;;;;8.10;5.80;;;;;;;8.27;100.00;94012.13;5093738;28;20224;-59
2021/12/27 05:58:00;;;;;;;8.63;6.20;;;;;;;8.48;100.00;94028.00;5093781;28;20226;-59
2021/12/27 06:00:26;;;;;;;7.50;5.63;;;;;;;8.22;100.00;93993.97;5093920;28;20556;-62
2021/12/27 06:02:54;;;;;;;10.10;6.37;;;;;;;7.97;100.00;93991.94;5093062;28;20244;-62
2021/12/27 06:05:22;;;;;;;11.53;7.27;;;;;;;8.21;100.00;94002.50;5093376;28;20176;-60
2021/12/27 06:07:47;;;;;;;9.73;6.77;;;;;;;8.46;100.00;94032.38;5092434;28;20177;-61
2021/12/27 06:10:13;;;;;;;10.30;7.33;;;;;;;7.96;100.00;93972.63;5093612;28;20175;-61
2021/12/27 06:12:40;;;;;;;10.70;6.70;;;;;;;8.06;100.00;93975.19;5092161;28;20191;-62
2021/12/27 06:15:07;;;;;;;10.60;7.03;;;;;;;7.84;100.00;93971.13;5091956;28;20712;-61
2021/12/27 06:17:33;;;;;;;10.83;6.47;;;;;;;7.96;100.00;93969.31;5093674;28;20692;-62
2021/12/27 06:20:04;;;;;;;10.00;6.83;;;;;;;7.88;100.00;93962.34;5093483;28;20168;-61
2021/12/27 06:22:30;;;;;;;14.83;9.03;;;;;;;7.94;100.00;93977.00;5093714;28;20696;-60
2021/12/27 06:24:55;;;;;;;10.37;6.73;;;;;;;8.13;100.00;93977.06;5091993;28;20173;-60
2021/12/27 06:27:21;;;;;;;9.90;6.60;;;;;;;8.25;100.00;93992.94;5091787;28;20294;-61
2021/12/27 06:29:46;;;;;;;11.37;6.20;;;;;;;8.21;100.00;93984.78;5093077;28;20210;-61
2021/12/27 06:32:13;;;;;;;9.20;5.50;;;;;;;8.32;100.00;93994.03;5093586;28;20746;-62
2021/12/27 06:34:40;;;;;;;8.13;5.53;;;;;;;8.30;100.00;94001.72;5092808;28;20230;-61
2021/12/27 06:37:06;;;;;;;10.13;5.23;;;;;;;8.24;100.00;94004.75;5093008;28;20291;-61
2021/12/27 06:39:32;;;;;;;13.67;7.93;;;;;;;7.92;100.00;93965.44;5092937;28;20538;-60
2021/12/27 06:41:57;;;;;;;8.93;5.47;;;;;;;8.04;100.00;93961.88;5093228;28;20308;-62
2021/12/27 06:44:23;;;;;;;9.77;5.73;;;;;;;8.18;100.00;93951.34;5093119;28;20637;-62
2021/12/27 06:46:49;;;;;;;8.87;5.90;;;;;;;7.99;100.00;93924.28;5093105;28;20220;-59
2021/12/27 06:49:14;;;;;;;7.13;5.03;;;;;;;8.10;100.00;93944.41;5092702;28;20675;-60
2021/12/27 06:51:39;;;;;;;7.87;5.03;;;;;;;7.76;100.00;93938.09;5092970;28;20208;-62
2021/12/27 06:54:05;;;;;;;6.23;4.40;;;;;;;8.03;100.00;93963.59;5092458;28;20183;-59
2021/12/27 06:56:30;;;;;;;7.73;4.60;;;;;;;8.18;100.00;93979.97;5092619;28;20234;-59
2021/12/27 06:58:56;;;;;;;6.73;4.37;;;;;;;8.29;100.00;93974.81;5092797;28;20190;-61
2021/12/27 07:01:22;;;;;;;9.30;4.43;;;;;;;8.55;100.00;93984.41;5092562;28;20210;-61
2021/12/27 07:03:47;;;;;;;5.57;4.53;;;;;;;8.57;100.00;93967.34;5092335;28;20668;-59
2021/12/27 07:06:13;;;;;;;7.93;4.83;;;;;;;8.67;100.00;93961.34;5092511;28;20269;-61
2021/12/27 07:08:38;;;;;;;6.10;4.30;;;;;;;8.61;100.00;93961.88;5074123;28;20172;-60
2021/12/27 07:11:04;;;;;;;6.23;4.40;;;;;;;8.57;100.00;93965.59;5092398;28;20311;-62
2021/12/27 07:13:30;;;;;;;6.97;4.83;;;;;;;8.45;100.00;93949.75;5092708;28;20241;-62
2021/12/27 07:15:55;;;;;;;13.20;6.07;;;;;;;8.38;100.00;93951.22;5090827;28;20220;-60
2021/12/27 07:18:23;;;;;;;8.37;4.93;;;;;;;8.38;100.00;93945.38;5092542;28;20192;-61
2021/12/27 07:20:50;;;;;;;6.90;4.93;;;;;;;8.77;100.00;93958.78;5092444;28;20283;-61
2021/12/27 07:23:15;;;;;;;9.20;5.47;;;;;;;8.78;100.00;93968.78;5090963;28;20599;-58
2021/12/27 07:25:41;;;;;;;7.60;4.93;;;;;;;8.75;100.00;93950.50;5092205;28;20721;-63
2021/12/27 07:28:06;;;;;;;8.77;4.70;;;;;;;8.75;100.00;93947.97;5092137;28;20180;-59
2021/12/27 07:30:32;;;;;;;7.50;4.53;;;;;;;8.64;100.00;93948.16;5091972;28;20204;-62
2021/12/27 07:32:58;;;;;;;9.30;4.53;;;;;;;8.45;100.00;93923.63;5092077;28;20184;-59
2021/12/27 07:35:25;;;;;;;9.47;4.83;;;;;;;8.56;100.00;93938.69;5091985;28;20210;-63
2021/12/27 07:37:50;;;;;;;7.27;4.57;;;;;;;8.55;100.00;93931.22;5090653;28;20184;-62
2021/12/27 07:40:16;;;;;;;7.67;4.97;;;;;;;8.71;100.00;93941.59;5091830;28;20601;-61
2021/12/27 07:42:42;;;;;;;12.20;5.07;;;;;;;8.83;100.00;93930.34;5090437;28;20230;-62
2021/12/27 07:45:08;;;;;;;11.40;6.20;;;;;;;8.77;100.00;93941.84;5004214;22;20317;-61
2021/12/27 07:47:33;;;;;;;8.00;5.97;;;;;;;9.33;100.00;93926.59;4989387;28;20218;-62
2021/12/27 07:49:59;;;;;;;9.13;6.27;;;;;;;9.20;100.00;93951.47;4989841;28;20190;-61
2021/12/27 07:52:25;;;;;;;9.03;5.60;;;;;;;9.29;100.00;93960.78;4989489;28;20715;-59
2021/12/27 07:54:51;;;;;;;7.80;6.10;;;;;;;9.08;100.00;93944.97;4989336;28;20573;-61
2021/12/27 07:57:17;;;;;;;7.33;5.20;;;;;;;9.01;100.00;93936.31;4971801;28;20566;-60
2021/12/27 07:59:42;;;;;;;7.73;5.57;;;;;;;8.93;100.00;93923.53;4989358;28;20190;-60
2021/12/27 08:02:13;;;;;;;8.10;5.80;;;;;;;9.04;100.00;93943.66;4989227;28;20196;-61
2021/12/27 08:04:39;;;;;;;9.87;5.37;;;;;;;9.16;100.00;93934.94;4989169;28;20577;-61
2021/12/27 08:07:04;;;;;;;6.43;4.00;;;;;;;9.14;100.00;93946.94;4989338;28;20213;-62
2021/12/27 08:09:30;;;;;;;5.70;4.20;;;;;;;8.94;100.00;93923.41;4989806;28;20545;-61
2021/12/27 08:11:55;;;;;;;10.00;3.77;;;;;;;8.84;100.00;93922.63;4988971;28;20283;-60
2021/12/27 08:14:21;;;;;;;6.57;4.33;;;;;;;8.85;100.00;93928.47;4989706;28;20207;-61
2021/12/27 08:16:47;;;;;;;11.30;6.17;;;;;;;8.61;100.00;93925.59;4989291;28;20348;-63
2021/12/27 08:19:13;;;;;;;14.77;9.57;;;;;;;8.45;100.00;93916.84;4988020;28;20203;-61
2021/12/27 08:21:45;;;;;;;6.57;4.77;;;;;;;8.75;100.00;93930.25;4988841;28;20231;-63
2021/12/27 08:24:18;;;;;;;6.83;4.40;;;;;;;9.03;100.00;93947.91;4989656;28;20278;-63
2021/12/27 08:26:44;;;;;;;11.23;6.73;;;;;;;8.85;100.00;93943.69;4992645;28;20208;-62
2021/12/27 08:29:11;;;;;;;7.80;4.50;;;;;;;8.97;100.00;93927.38;4992778;28;20214;-63
2021/12/27 08:31:37;;;;;;;6.53;4.27;;;;;;;9.10;100.00;93932.97;4992485;28;20227;-61
2021/12/27 08:34:03;;;;;;;7.53;4.87;;;;;;;9.28;100.00;93908.47;4992433;28;20181;-60
2021/12/27 08:36:29;;;;;;;5.07;2.83;;;;;;;9.59;100.00;93959.72;4991017;28;20200;-62
2021/12/27 08:38:54;;;;;;;7.63;4.90;;;;;;;9.42;100.00;93960.44;4992487;28;20241;-63
2021/12/27 08:41:20;;;;;;;6.77;5.17;;;;;;;9.20;100.00;93943.88;4992219;28;20282;-62
2021/12/27 08:43:46;;;;;;;7.87;4.83;;;;;;;9.01;100.00;93919.38;4992028;28;20256;-63
2021/12/27 08:46:12;;;;;;;6.90;4.97;;;;;;;9.10;100.00;93912.69;4991950;28;20273;-64
2021/12/27 08:48:38;;;;;;;5.37;4.17;;;;;;;9.43;100.00;93955.25;4990777;28;20191;-63
2021/12/27 08:51:04;;;;;;;7.73;4.87;;;;;;;9.59;100.00;93988.44;4990865;28;20298;-60
2021/12/27 08:53:29;;;;;;;12.23;6.33;;;;;;;9.15;100.00;93946.81;4991952;28;20188;-63
2021/12/27 08:55:55;;;;;;;8.53;5.20;;;;;;;9.20;100.00;93921.03;4991897;28;20603;-61
2021/12/27 08:58:21;;;;;;;5.90;3.80;;;;;;;9.46;100.00;93919.44;4992320;28;20188;-61
2021/12/27 09:00:47;;;;;;;3.73;2.93;;;;;;;10.02;100.00;93958.13;4991722;28;20200;-61
2021/12/27 09:03:13;;;;;;;4.13;2.20;;;;;;;10.42;100.00;93979.81;4992260;28;20191;-61
2021/12/27 09:05:39;;;;;;;4.00;2.10;;;;;;;10.84;100.00;93988.41;4991792;28;20196;-62
2021/12/27 09:08:05;;;;;;;4.33;2.20;;;;;;;10.97;99.93;93979.44;4992438;28;20191;-60
2021/12/27 09:10:31;;;;;;;2.30;1.67;;;;;;;11.14;98.40;93998.16;4992057;28;20195;-63
2021/12/27 09:12:56;;;;;;;4.50;2.83;;;;;;;11.18;98.48;93968.94;4991869;28;20188;-62
2021/12/27 09:15:22;;;;;;;5.97;1.77;;;;;;;11.25;98.03;93979.31;4991660;28;20204;-63
2021/12/27 09:17:48;;;;;;;4.70;2.10;;;;;;;11.50;96.88;93989.47;4991816;28;20219;-63
2021/12/27 09:20:14;;;;;;;3.20;1.13;;;;;;;11.78;94.98;94016.34;4991722;28;20214;-63
2021/12/27 09:22:40;;;;;;;1.90;1.23;;;;;;;12.06;92.62;94011.06;4992075;28;20199;-64
2021/12/27 09:25:06;;;;;;;2.80;1.10;;;;;;;12.34;90.84;94014.97;4990381;28;20187;-63
2021/12/27 09:27:32;;;;;;;1.83;0.97;;;;;;;12.58;89.35;94015.00;4991530;28;20220;-62
2021/12/27 09:29:57;;;;;;;2.20;1.10;;;;;;;12.73;88.73;94012.59;4991461;28;20180;-63
2021/12/27 09:32:23;;;;;;;1.43;1.20;;;;;;;12.82;87.55;94030.31;4991446;28;20220;-63
2021/12/27 09:34:50;;;;;;;2.10;0.90;;;;;;;12.96;85.78;94034.00;4990116;28;20692;-64
2021/12/27 09:37:16;;;;;;;1.40;1.30;;;;;;;13.05;85.75;94036.41;4990255;28;20219;-63
2021/12/27 09:39:41;;;;;;;1.80;1.10;;;;;;;13.14;85.60;94016.78;4992035;28;20183;-62
2021/12/27 09:42:07;;;;;;;2.13;0.90;;;;;;;13.30;83.78;94044.84;4991367;28;20192;-62
2021/12/27 09:44:32;;;;;;;4.47;1.40;;;;;;;13.34;84.85;94020.59;4991181;28;20204;-60
2021/12/27 09:46:58;;;;;;;1.57;1.00;;;;;;;13.27;83.68;94025.53;4991342;28;20200;-61
2021/12/27 09:49:29;;;;;;;2.87;0.90;;;;;;;13.30;84.67;94007.38;4990983;28;20267;-61
2021/12/27 09:51:57;;;;;;;4.63;1.00;;;;;;;13.33;84.16;94008.81;4991116;28;20230;-63
2021/12/27 09:54:26;;;;;;;0.80;0.77;;;;;;;13.33;84.20;93999.38;4990230;28;20226;-61
2021/12/27 09:56:52;;;;;;;7.00;1.00;;;;;;;13.36;84.28;93996.50;4991345;28;20211;-61
2021/12/27 09:59:18;;;;;;;1.20;0.53;;;;;;;13.42;83.25;93998.41;4990036;28;20270;-62
2021/12/27 10:01:44;;;;;;;1.20;0.90;;;;;;;13.45;82.89;94013.38;4990777;28;20569;-61
2021/12/27 10:04:09;;;;;;;4.87;1.70;;;;;;;13.40;83.77;93999.53;4991524;28;20223;-61
2021/12/27 10:06:35;;;;;;;4.37;1.50;;;;;;;13.39;83.62;93992.84;4973484;28;20632;-62
2021/12/27 10:09:07;;;;;;;1.90;1.00;;;;;;;13.38;83.43;93999.69;4991405;28;20289;-62
2021/12/27 10:11:35;;;;;;;1.97;0.97;;;;;;;13.39;83.62;93980.84;4991258;28;20207;-62
2021/12/27 10:14:06;;;;;;;2.83;0.97;;;;;;;13.38;83.83;93976.72;4991463;28;20196;-62
2021/12/27 10:16:34;;;;;;;1.37;0.73;;;;;;;13.33;83.66;93999.38;4990900;28;20235;-63
2021/12/27 10:19:03;;;;;;;2.57;0.90;;;;;;;13.49;82.85;94009.56;4989771;28;20701;-62
2021/12/27 10:21:28;;;;;;;1.47;0.73;;;;;;;13.46;82.49;94020.09;4989895;28;20279;-64
2021/12/27 10:24:14;;;;;;;1.17;0.80;;;;;;;13.46;82.83;94014.19;4989339;28;20713;-63
2021/12/27 10:26:42;;;;;;;3.80;0.90;;;;;;;13.45;82.81;94010.84;4988496;28;20203;-64
2021/12/27 10:29:15;;;;;;;3.70;0.90;;;;;;;13.45;82.86;94004.94;4991633;28;20219;-62
2021/12/27 10:32:01;;;;;;;1.57;1.00;;;;;;;13.50;82.39;94010.34;4990629;28;20214;-64
2021/12/27 10:34:48;;;;;;;2.10;1.07;;;;;;;13.44;82.41;94001.59;4989351;28;20246;-63
2021/12/27 10:37:25;;;;;;;1.40;0.67;;;;;;;13.43;82.77;94015.31;4990551;28;20200;-62
2021/12/27 10:39:58;;;;;;;2.00;0.87;;;;;;;13.52;82.42;94008.44;4990297;28;20183;-62
2021/12/27 10:42:28;;;;;;;1.73;1.03;;;;;;;13.41;83.43;93963.59;4990643;28;20290;-63
2021/12/27 10:44:58;;;;;;;1.93;1.43;;;;;;;13.41;84.47;93953.41;4988101;28;20234;-63
2021/12/27 10:47:46;;;;;;;4.13;1.57;;;;;;;13.59;83.08;93949.84;4988873;28;20283;-62
2021/12/27 10:50:27;;;;;;;6.30;1.80;;;;;;;13.60;83.25;93949.69;4989772;28;20205;-63
2021/12/27 10:53:02;;;;;;;9.70;2.10;;;;;;;13.57;85.09;93921.13;4990404;28;20289;-62
2021/12/27 10:55:38;;;;;;;28.23;8.30;;;;;;;14.28;100.00;93816.94;4990331;28;20258;-64
2021/12/27 10:58:24;;;;;;;11.35;4.90;;;;;;;15.04;100.00;93803.84;4990339;28;20255;-62
2021/12/27 11:00:54;;;;;;;23.87;9.07;;;;;;;15.72;100.00;93816.28;4988920;28;20203;-61
2021/12/27 11:03:29;;;;;;;9.25;3.20;;;;;;;16.51;100.00;93836.59;4988952;28;20199;-64
2021/12/27 11:05:56;;;;;;;18.92;7.85;;;;;;;16.78;93.64;93866.63;4990013;28;20199;-63
2021/12/27 11:08:22;;;;;;;7.50;2.95;;;;;;;16.92;85.22;93997.66;4990376;28;20184;-63
2021/12/27 11:10:48;;;;;;;9.95;2.70;;;;;;;16.69;73.96;93931.09;4989812;28;20195;-65
2021/12/27 11:13:14;;;;;;;2.83;1.30;;;;;;;16.56;75.58;93889.94;4990227;28;20184;-61
2021/12/27 11:15:42;;;;;;;4.65;1.30;;;;;;;16.47;66.50;94026.97;4988589;28;20215;-59
2021/12/27 11:18:08;;;;;;;1.70;0.98;;;;;;;16.64;72.37;93910.34;4988829;28;20215;-62
2021/12/27 11:20:35;;;;;;;6.55;1.52;;;;;;;16.70;63.08;94066.16;4989774;28;20211;-64
2021/12/27 11:23:02;;;;;;;3.05;1.38;;;;;;;16.26;64.00;94043.09;4989769;28;20661;-61
2021/12/27 11:25:38;;;;;;;4.57;1.23;;;;;;;15.67;65.63;93987.72;4989863;28;20227;-69
2021/12/27 11:28:06;;;;;;;4.93;1.75;;;;;;;15.23;66.57;93966.38;4988688;28;20180;-63